Terminal Aerodrome Forecast
Issued by NWS

Home | Current Version | Previous Version | Text Only | Print | Product List | Glossary On
Versions: 1 2 3 4 5 6 7 8 9 10 11 12 13 14 15 16 17
000
FTUS43 KIND 202300
TAFHUF
TAF
KHUF 202320Z 2100/2124 22010KT P6SM SCT040 BKN080
      TEMPO 2101/2103 27020G30KT 3SM TSRA OVC025CB
     FM210300 22011KT P6SM VCTS SCT040 BKN060CB
     FM210800 23009KT P6SM SCT012 BKN080
     FM211000 28009KT P6SM SCT012
     FM211600 30015G22KT P6SM SCT035
     FM212300 34012KT P6SM BKN025=

USA.gov is the U.S. government's official web portal to all federal, state and local government web resources and services.